^^
Saratoga-Weather Station Historical Data
Daily Summary for January 25, 2022 Units:  Both    English   Metric
Daily Weekly Monthly Yearly Custom
  High: Low: Average:
Temperature: 32.4 °F /  0.2 °C 28.9 °F /  -1.7 °C 30.6 °F /  -0.8 °C
Dew Point: 31.6 °F /  -0.2 °C 27.7 °F /  -2.4 °C 29.7 °F /  -1.3 °C
Humidity: 97% 94% 96%
Wind Speed: 4mph /  6.4km/h - 0.6mph /  0.9km/h
Wind Gust: 5mph /  8km/h - -
Wind- - SSE
Pressure: 30.5 in /  1033.5 hPa 30.5 in /  1032.2 hPa -
Precipitation: 0 in /  0.0 mm    
Historical Graphs
 
 
Tabular Data for January 25, 2022
Time Temperature Dew Point Pressure Wind Wind Speed Wind Gust Humidity Rainfall Rate (Hourly) solar
00:04 30.4 °F /  -0.9 °C 29.1 °F /  -1.6 °C 30.5in /  1032.8hPa Calm     95% 0in /  0.0mm 0 W/m2
00:09 30.2 °F /  -1 °C 28.9 °F /  -1.7 °C 30.5in /  1032.8hPa Calm     95% 0in /  0.0mm 0 W/m2
00:14 30 °F /  -1.1 °C 28.6 °F /  -1.9 °C 30.5in /  1032.8hPa Calm     94% 0in /  0.0mm 0 W/m2
00:19 30 °F /  -1.1 °C 28.8 °F /  -1.8 °C 30.5in /  1032.8hPa Calm     95% 0in /  0.0mm 0 W/m2
00:24 30.2 °F /  -1 °C 28.9 °F /  -1.7 °C 30.5in /  1032.8hPa Calm     95% 0in /  0.0mm 0 W/m2
00:29 30.2 °F /  -1 °C 28.9 °F /  -1.7 °C 30.5in /  1032.8hPa Calm     95% 0in /  0.0mm 0 W/m2
00:34 30 °F /  -1.1 °C 28.8 °F /  -1.8 °C 30.5in /  1032.8hPa Calm     95% 0in /  0.0mm 0 W/m2
00:39 30 °F /  -1.1 °C 28.8 °F /  -1.8 °C 30.5in /  1032.8hPa Calm     95% 0in /  0.0mm 0 W/m2
00:44 29.8 °F /  -1.2 °C 28.6 °F /  -1.9 °C 30.5in /  1032.8hPa Calm     95% 0in /  0.0mm 0 W/m2
00:49 29.8 °F /  -1.2 °C 28.6 °F /  -1.9 °C 30.5in /  1032.8hPa Calm     95% 0in /  0.0mm 0 W/m2
00:54 29.8 °F /  -1.2 °C 28.6 °F /  -1.9 °C 30.5in /  1032.8hPa Calm     95% 0in /  0.0mm 0 W/m2
00:59 29.8 °F /  -1.2 °C 28.6 °F /  -1.9 °C 30.5in /  1032.8hPa Calm     95% 0in /  0.0mm 0 W/m2
01:04 29.8 °F /  -1.2 °C 28.6 °F /  -1.9 °C 30.5in /  1032.8hPa Calm     95% 0in /  0.0mm 0 W/m2
01:09 29.7 °F /  -1.3 °C 28.4 °F /  -2 °C 30.5in /  1032.8hPa Calm     95% 0in /  0.0mm 0 W/m2
01:14 29.5 °F /  -1.4 °C 28.2 °F /  -2.1 °C 30.5in /  1032.8hPa Calm     95% 0in /  0.0mm 0 W/m2
01:19 29.5 °F /  -1.4 °C 28.2 °F /  -2.1 °C 30.5in /  1032.8hPa Calm     95% 0in /  0.0mm 0 W/m2
01:24 29.3 °F /  -1.5 °C 28 °F /  -2.2 °C 30.5in /  1032.8hPa Calm     95% 0in /  0.0mm 0 W/m2
01:29 29.1 °F /  -1.6 °C 27.9 °F /  -2.3 °C 30.5in /  1032.8hPa Calm     95% 0in /  0.0mm 0 W/m2
01:34 29.1 °F /  -1.6 °C 27.9 °F /  -2.3 °C 30.5in /  1032.8hPa Calm     95% 0in /  0.0mm 0 W/m2
01:40 29.1 °F /  -1.6 °C 27.9 °F /  -2.3 °C 30.5in /  1032.8hPa Calm     95% 0in /  0.0mm 0 W/m2
01:45 29.1 °F /  -1.6 °C 27.9 °F /  -2.3 °C 30.5in /  1032.8hPa Calm     95% 0in /  0.0mm 0 W/m2
01:50 29.1 °F /  -1.6 °C 27.9 °F /  -2.3 °C 30.5in /  1032.8hPa Calm     95% 0in /  0.0mm 0 W/m2
01:55 29.1 °F /  -1.6 °C 27.9 °F /  -2.3 °C 30.5in /  1032.8hPa Calm     95% 0in /  0.0mm 0 W/m2
02:00 29.1 °F /  -1.6 °C 27.9 °F /  -2.3 °C 30.5in /  1032.8hPa Calm     95% 0in /  0.0mm 0 W/m2
02:05 29.3 °F /  -1.5 °C 28 °F /  -2.2 °C 30.5in /  1032.8hPa Calm     95% 0in /  0.0mm 0 W/m2
02:10 29.5 °F /  -1.4 °C 28.2 °F /  -2.1 °C 30.5in /  1032.8hPa Calm   1mph /  1.6km/h 95% 0in /  0.0mm 0 W/m2
02:15 29.8 °F /  -1.2 °C 28.6 °F /  -1.9 °C 30.5in /  1032.8hPa Calm   1mph /  1.6km/h 95% 0in /  0.0mm 0 W/m2
02:20 29.8 °F /  -1.2 °C 28.6 °F /  -1.9 °C 30.5in /  1032.8hPa Calm     95% 0in /  0.0mm 0 W/m2
02:25 29.8 °F /  -1.2 °C 28.6 °F /  -1.9 °C 30.5in /  1032.8hPa Calm   1mph /  1.6km/h 95% 0in /  0.0mm 0 W/m2
02:30 29.8 °F /  -1.2 °C 28.6 °F /  -1.9 °C 30.5in /  1032.8hPa Calm     95% 0in /  0.0mm 0 W/m2
02:35 29.7 °F /  -1.3 °C 28.4 °F /  -2 °C 30.5in /  1032.8hPa Calm     95% 0in /  0.0mm 0 W/m2
02:40 29.5 °F /  -1.4 °C 28.2 °F /  -2.1 °C 30.5in /  1032.8hPa Calm     95% 0in /  0.0mm 0 W/m2
02:45 29.5 °F /  -1.4 °C 28.2 °F /  -2.1 °C 30.5in /  1032.8hPa Calm     95% 0in /  0.0mm 0 W/m2
02:50 29.3 °F /  -1.5 °C 28 °F /  -2.2 °C 30.5in /  1032.8hPa Calm     95% 0in /  0.0mm 0 W/m2
02:55 29.5 °F /  -1.4 °C 28.2 °F /  -2.1 °C 30.5in /  1033.2hPa Calm     95% 0in /  0.0mm 0 W/m2
03:00 29.5 °F /  -1.4 °C 28.2 °F /  -2.1 °C 30.5in /  1033.2hPa East 0.9mph /  1.4km/h 2mph /  3.2km/h 95% 0in /  0.0mm 0 W/m2
03:05 29.5 °F /  -1.4 °C 28.2 °F /  -2.1 °C 30.5in /  1033.2hPa Calm   1mph /  1.6km/h 95% 0in /  0.0mm 0 W/m2
03:10 29.5 °F /  -1.4 °C 28.2 °F /  -2.1 °C 30.5in /  1033.2hPa Calm   2mph /  3.2km/h 95% 0in /  0.0mm 0 W/m2
03:15 29.3 °F /  -1.5 °C 28 °F /  -2.2 °C 30.5in /  1033.2hPa Calm   1mph /  1.6km/h 95% 0in /  0.0mm 0 W/m2
03:20 29.1 °F /  -1.6 °C 27.9 °F /  -2.3 °C 30.5in /  1033.2hPa ESE 0.9mph /  1.4km/h 2mph /  3.2km/h 95% 0in /  0.0mm 0 W/m2
03:25 29.1 °F /  -1.6 °C 27.9 °F /  -2.3 °C 30.5in /  1033.2hPa Calm   1mph /  1.6km/h 95% 0in /  0.0mm 0 W/m2
03:30 29.1 °F /  -1.6 °C 27.9 °F /  -2.3 °C 30.5in /  1033.2hPa ESE 2mph /  3.2km/h 3mph /  4.8km/h 95% 0in /  0.0mm 0 W/m2
03:35 29.1 °F /  -1.6 °C 27.9 °F /  -2.3 °C 30.5in /  1033.2hPa ENE 2mph /  3.2km/h 3mph /  4.8km/h 95% 0in /  0.0mm 0 W/m2
03:40 29.1 °F /  -1.6 °C 27.9 °F /  -2.3 °C 30.5in /  1033.2hPa Calm   2mph /  3.2km/h 95% 0in /  0.0mm 0 W/m2
03:45 28.9 °F /  -1.7 °C 27.7 °F /  -2.4 °C 30.5in /  1033.2hPa Calm     95% 0in /  0.0mm 0 W/m2
03:50 28.9 °F /  -1.7 °C 27.7 °F /  -2.4 °C 30.5in /  1033.2hPa Calm   1mph /  1.6km/h 95% 0in /  0.0mm 0 W/m2
03:55 28.9 °F /  -1.7 °C 27.7 °F /  -2.4 °C 30.5in /  1033.2hPa East 2mph /  3.2km/h 3mph /  4.8km/h 95% 0in /  0.0mm 0 W/m2
04:00 28.9 °F /  -1.7 °C 27.7 °F /  -2.4 °C 30.5in /  1033.2hPa Calm   2mph /  3.2km/h 95% 0in /  0.0mm 0 W/m2
04:05 28.9 °F /  -1.7 °C 27.9 °F /  -2.3 °C 30.5in /  1033.2hPa Calm   2mph /  3.2km/h 96% 0in /  0.0mm 0 W/m2
04:10 28.9 °F /  -1.7 °C 27.7 °F /  -2.4 °C 30.5in /  1033.2hPa Calm     95% 0in /  0.0mm 0 W/m2
04:15 28.9 °F /  -1.7 °C 27.9 °F /  -2.3 °C 30.5in /  1033.2hPa East 0.9mph /  1.4km/h 1mph /  1.6km/h 96% 0in /  0.0mm 0 W/m2
04:20 29.1 °F /  -1.6 °C 28 °F /  -2.2 °C 30.5in /  1033.2hPa Calm   2mph /  3.2km/h 96% 0in /  0.0mm 0 W/m2
04:25 29.1 °F /  -1.6 °C 28 °F /  -2.2 °C 30.5in /  1033.2hPa Calm   2mph /  3.2km/h 96% 0in /  0.0mm 0 W/m2
04:30 29.1 °F /  -1.6 °C 28 °F /  -2.2 °C 30.5in /  1033.2hPa Calm   2mph /  3.2km/h 96% 0in /  0.0mm 0 W/m2
04:35 29.1 °F /  -1.6 °C 28 °F /  -2.2 °C 30.5in /  1033.2hPa Calm   1mph /  1.6km/h 96% 0in /  0.0mm 0 W/m2
04:40 29.1 °F /  -1.6 °C 28 °F /  -2.2 °C 30.5in /  1033.2hPa NE 0.9mph /  1.4km/h 1mph /  1.6km/h 96% 0in /  0.0mm 0 W/m2
04:45 29.3 °F /  -1.5 °C 28.2 °F /  -2.1 °C 30.5in /  1033.2hPa Calm   2mph /  3.2km/h 96% 0in /  0.0mm 0 W/m2
04:50 29.5 °F /  -1.4 °C 28.4 °F /  -2 °C 30.5in /  1033.2hPa Calm   1mph /  1.6km/h 96% 0in /  0.0mm 0 W/m2
04:55 29.5 °F /  -1.4 °C 28.4 °F /  -2 °C 30.5in /  1033.2hPa Calm   1mph /  1.6km/h 96% 0in /  0.0mm 0 W/m2
05:00 29.5 °F /  -1.4 °C 28.4 °F /  -2 °C 30.5in /  1033.2hPa Calm     96% 0in /  0.0mm 0 W/m2
05:05 29.7 °F /  -1.3 °C 28.6 °F /  -1.9 °C 30.5in /  1032.8hPa Calm     96% 0in /  0.0mm 0 W/m2
05:10 29.7 °F /  -1.3 °C 28.6 °F /  -1.9 °C 30.5in /  1032.8hPa Calm   1mph /  1.6km/h 96% 0in /  0.0mm 0 W/m2
05:15 29.7 °F /  -1.3 °C 28.6 °F /  -1.9 °C 30.5in /  1032.8hPa North 0.9mph /  1.4km/h 2mph /  3.2km/h 96% 0in /  0.0mm 0 W/m2
05:20 29.7 °F /  -1.3 °C 28.6 °F /  -1.9 °C 30.5in /  1032.8hPa Calm     96% 0in /  0.0mm 0 W/m2
05:25 29.7 °F /  -1.3 °C 28.6 °F /  -1.9 °C 30.5in /  1032.8hPa Calm   2mph /  3.2km/h 96% 0in /  0.0mm 0 W/m2
05:30 29.7 °F /  -1.3 °C 28.6 °F /  -1.9 °C 30.5in /  1032.8hPa East 2mph /  3.2km/h 2mph /  3.2km/h 96% 0in /  0.0mm 0 W/m2
05:35 29.7 °F /  -1.3 °C 28.6 °F /  -1.9 °C 30.5in /  1032.8hPa Calm     96% 0in /  0.0mm 0 W/m2
05:40 29.7 °F /  -1.3 °C 28.6 °F /  -1.9 °C 30.5in /  1032.8hPa ESE 0.9mph /  1.4km/h 1mph /  1.6km/h 96% 0in /  0.0mm 0 W/m2
05:45 29.7 °F /  -1.3 °C 28.6 °F /  -1.9 °C 30.5in /  1032.8hPa ENE 0.9mph /  1.4km/h 2mph /  3.2km/h 96% 0in /  0.0mm 0 W/m2
05:50 29.7 °F /  -1.3 °C 28.6 °F /  -1.9 °C 30.5in /  1032.8hPa Calm   1mph /  1.6km/h 96% 0in /  0.0mm 0 W/m2
05:55 29.7 °F /  -1.3 °C 28.6 °F /  -1.9 °C 30.5in /  1032.8hPa Calm     96% 0in /  0.0mm 0 W/m2
06:00 29.7 °F /  -1.3 °C 28.6 °F /  -1.9 °C 30.5in /  1032.8hPa Calm   1mph /  1.6km/h 96% 0in /  0.0mm 0 W/m2
06:05 29.7 °F /  -1.3 °C 28.6 °F /  -1.9 °C 30.5in /  1032.8hPa NE 2mph /  3.2km/h 2mph /  3.2km/h 96% 0in /  0.0mm 0 W/m2
06:10 29.7 °F /  -1.3 °C 28.6 °F /  -1.9 °C 30.5in /  1032.8hPa Calm   1mph /  1.6km/h 96% 0in /  0.0mm 0 W/m2
06:16 29.7 °F /  -1.3 °C 28.6 °F /  -1.9 °C 30.5in /  1032.8hPa Calm   1mph /  1.6km/h 96% 0in /  0.0mm 0 W/m2
06:21 29.7 °F /  -1.3 °C 28.6 °F /  -1.9 °C 30.5in /  1032.5hPa NE 0.9mph /  1.4km/h 1mph /  1.6km/h 96% 0in /  0.0mm 0 W/m2
06:26 29.7 °F /  -1.3 °C 28.6 °F /  -1.9 °C 30.5in /  1032.8hPa NE 2mph /  3.2km/h 2mph /  3.2km/h 96% 0in /  0.0mm 0 W/m2
06:31 29.7 °F /  -1.3 °C 28.6 °F /  -1.9 °C 30.5in /  1032.8hPa Calm   1mph /  1.6km/h 96% 0in /  0.0mm 0 W/m2
06:36 29.7 °F /  -1.3 °C 28.6 °F /  -1.9 °C 30.5in /  1032.8hPa Calm     96% 0in /  0.0mm 0 W/m2
06:41 29.7 °F /  -1.3 °C 28.6 °F /  -1.9 °C 30.5in /  1032.8hPa East 2mph /  3.2km/h 2mph /  3.2km/h 96% 0in /  0.0mm 0 W/m2
06:46 29.8 °F /  -1.2 °C 28.8 °F /  -1.8 °C 30.5in /  1032.8hPa NE 0.9mph /  1.4km/h 2mph /  3.2km/h 96% 0in /  0.0mm 0 W/m2
06:51 29.8 °F /  -1.2 °C 28.8 °F /  -1.8 °C 30.5in /  1032.8hPa East 0.9mph /  1.4km/h 2mph /  3.2km/h 96% 0in /  0.0mm 0 W/m2
06:56 29.7 °F /  -1.3 °C 28.6 °F /  -1.9 °C 30.5in /  1032.8hPa Calm     96% 0in /  0.0mm 0 W/m2
07:01 29.7 °F /  -1.3 °C 28.6 °F /  -1.9 °C 30.5in /  1032.5hPa Calm   1mph /  1.6km/h 96% 0in /  0.0mm 0 W/m2
07:06 29.7 °F /  -1.3 °C 28.6 °F /  -1.9 °C 30.5in /  1032.8hPa ESE 0.9mph /  1.4km/h 3mph /  4.8km/h 96% 0in /  0.0mm 0 W/m2
07:11 29.5 °F /  -1.4 °C 28.4 °F /  -2 °C 30.5in /  1032.8hPa Calm   1mph /  1.6km/h 96% 0in /  0.0mm 0 W/m2
07:16 29.5 °F /  -1.4 °C 28.4 °F /  -2 °C 30.5in /  1032.8hPa Calm   1mph /  1.6km/h 96% 0in /  0.0mm 0 W/m2
07:21 29.5 °F /  -1.4 °C 28.4 °F /  -2 °C 30.5in /  1032.5hPa Calm   1mph /  1.6km/h 96% 0in /  0.0mm 0 W/m2
07:26 29.5 °F /  -1.4 °C 28.4 °F /  -2 °C 30.5in /  1032.5hPa ENE 0.9mph /  1.4km/h 2mph /  3.2km/h 96% 0in /  0.0mm 0 W/m2
07:31 29.5 °F /  -1.4 °C 28.4 °F /  -2 °C 30.5in /  1032.8hPa Calm   2mph /  3.2km/h 96% 0in /  0.0mm 0 W/m2
07:36 29.5 °F /  -1.4 °C 28.4 °F /  -2 °C 30.5in /  1032.8hPa Calm   1mph /  1.6km/h 96% 0in /  0.0mm 0 W/m2
07:41 29.5 °F /  -1.4 °C 28.4 °F /  -2 °C 30.5in /  1032.8hPa Calm     96% 0in /  0.0mm 0 W/m2
07:46 29.7 °F /  -1.3 °C 28.6 °F /  -1.9 °C 30.5in /  1032.8hPa NE 0.9mph /  1.4km/h 2mph /  3.2km/h 96% 0in /  0.0mm 0 W/m2
07:51 29.7 °F /  -1.3 °C 28.6 °F /  -1.9 °C 30.5in /  1032.8hPa Calm   2mph /  3.2km/h 96% 0in /  0.0mm 0 W/m2
07:56 29.7 °F /  -1.3 °C 28.6 °F /  -1.9 °C 30.5in /  1032.8hPa Calm     96% 0in /  0.0mm 0 W/m2
08:01 29.7 °F /  -1.3 °C 28.6 °F /  -1.9 °C 30.5in /  1032.8hPa Calm   2mph /  3.2km/h 96% 0in /  0.0mm 0 W/m2
08:06 29.7 °F /  -1.3 °C 28.6 °F /  -1.9 °C 30.5in /  1032.8hPa Calm     96% 0in /  0.0mm 0 W/m2
08:11 29.7 °F /  -1.3 °C 28.6 °F /  -1.9 °C 30.5in /  1032.8hPa Calm   1mph /  1.6km/h 96% 0in /  0.0mm 0 W/m2
08:16 29.8 °F /  -1.2 °C 28.8 °F /  -1.8 °C 30.5in /  1032.8hPa Calm   1mph /  1.6km/h 96% 0in /  0.0mm 0 W/m2
08:21 29.7 °F /  -1.3 °C 28.6 °F /  -1.9 °C 30.5in /  1032.8hPa Calm     96% 0in /  0.0mm 0 W/m2
08:26 29.7 °F /  -1.3 °C 28.6 °F /  -1.9 °C 30.5in /  1032.8hPa Calm   1mph /  1.6km/h 96% 0in /  0.0mm 0 W/m2
08:31 29.8 °F /  -1.2 °C 28.8 °F /  -1.8 °C 30.5in /  1032.8hPa Calm     96% 0in /  0.0mm 0 W/m2
08:36 29.7 °F /  -1.3 °C 28.6 °F /  -1.9 °C 30.5in /  1032.8hPa Calm   2mph /  3.2km/h 96% 0in /  0.0mm 5 W/m2
08:41 29.7 °F /  -1.3 °C 28.6 °F /  -1.9 °C 30.5in /  1032.8hPa Calm   1mph /  1.6km/h 96% 0in /  0.0mm 5 W/m2
08:46 29.7 °F /  -1.3 °C 28.6 °F /  -1.9 °C 30.5in /  1032.8hPa Calm     96% 0in /  0.0mm 7 W/m2
08:51 29.7 °F /  -1.3 °C 28.6 °F /  -1.9 °C 30.5in /  1032.8hPa Calm     96% 0in /  0.0mm 9 W/m2
08:56 29.7 °F /  -1.3 °C 28.6 °F /  -1.9 °C 30.5in /  1032.8hPa Calm     96% 0in /  0.0mm 11 W/m2
09:01 29.7 °F /  -1.3 °C 28.6 °F /  -1.9 °C 30.5in /  1032.8hPa Calm     96% 0in /  0.0mm 12 W/m2
09:06 29.7 °F /  -1.3 °C 28.6 °F /  -1.9 °C 30.5in /  1032.8hPa Calm     96% 0in /  0.0mm 12 W/m2
09:11 29.7 °F /  -1.3 °C 28.6 °F /  -1.9 °C 30.5in /  1032.8hPa Calm     96% 0in /  0.0mm 16 W/m2
09:16 29.8 °F /  -1.2 °C 28.8 °F /  -1.8 °C 30.5in /  1032.8hPa NE 0.9mph /  1.4km/h 1mph /  1.6km/h 96% 0in /  0.0mm 18 W/m2
09:21 29.8 °F /  -1.2 °C 28.8 °F /  -1.8 °C 30.5in /  1032.8hPa NE 0.9mph /  1.4km/h 2mph /  3.2km/h 96% 0in /  0.0mm 18 W/m2
09:26 29.8 °F /  -1.2 °C 28.8 °F /  -1.8 °C 30.5in /  1032.8hPa Calm     96% 0in /  0.0mm 21 W/m2
09:31 30 °F /  -1.1 °C 28.9 °F /  -1.7 °C 30.5in /  1032.8hPa Calm   1mph /  1.6km/h 96% 0in /  0.0mm 23 W/m2
09:36 30 °F /  -1.1 °C 28.9 °F /  -1.7 °C 30.5in /  1033.2hPa North 0.9mph /  1.4km/h 2mph /  3.2km/h 96% 0in /  0.0mm 23 W/m2
09:41 30 °F /  -1.1 °C 28.9 °F /  -1.7 °C 30.5in /  1033.2hPa Calm   1mph /  1.6km/h 96% 0in /  0.0mm 23 W/m2
09:46 30 °F /  -1.1 °C 28.9 °F /  -1.7 °C 30.5in /  1033.2hPa Calm   1mph /  1.6km/h 96% 0in /  0.0mm 26 W/m2
09:51 30 °F /  -1.1 °C 28.9 °F /  -1.7 °C 30.5in /  1033.2hPa NNE 0.9mph /  1.4km/h 2mph /  3.2km/h 96% 0in /  0.0mm 30 W/m2
09:56 30 °F /  -1.1 °C 28.9 °F /  -1.7 °C 30.5in /  1033.2hPa Calm     96% 0in /  0.0mm 33 W/m2
10:01 30.2 °F /  -1 °C 29.1 °F /  -1.6 °C 30.5in /  1033.2hPa Calm   2mph /  3.2km/h 96% 0in /  0.0mm 33 W/m2
10:06 30.2 °F /  -1 °C 29.1 °F /  -1.6 °C 30.5in /  1033.2hPa Calm   2mph /  3.2km/h 96% 0in /  0.0mm 33 W/m2
10:11 30.4 °F /  -0.9 °C 29.7 °F /  -1.3 °C 30.5in /  1033.2hPa Calm   1mph /  1.6km/h 97% 0in /  0.0mm 37 W/m2
10:16 30.4 °F /  -0.9 °C 29.7 °F /  -1.3 °C 30.5in /  1032.8hPa ENE 0.9mph /  1.4km/h 2mph /  3.2km/h 97% 0in /  0.0mm 40 W/m2
10:21 30.4 °F /  -0.9 °C 29.7 °F /  -1.3 °C 30.5in /  1032.8hPa Calm   2mph /  3.2km/h 97% 0in /  0.0mm 42 W/m2
10:26 30.4 °F /  -0.9 °C 29.7 °F /  -1.3 °C 30.5in /  1033.2hPa Calm     97% 0in /  0.0mm 39 W/m2
10:31 30.4 °F /  -0.9 °C 29.7 °F /  -1.3 °C 30.5in /  1033.2hPa Calm   2mph /  3.2km/h 97% 0in /  0.0mm 42 W/m2
10:36 30.4 °F /  -0.9 °C 29.3 °F /  -1.5 °C 30.5in /  1033.2hPa Calm     96% 0in /  0.0mm 46 W/m2
10:41 30.4 °F /  -0.9 °C 29.7 °F /  -1.3 °C 30.5in /  1033.2hPa Calm     97% 0in /  0.0mm 47 W/m2
10:46 30.6 °F /  -0.8 °C 29.8 °F /  -1.2 °C 30.5in /  1033.2hPa Calm   1mph /  1.6km/h 97% 0in /  0.0mm 49 W/m2
10:51 30.6 °F /  -0.8 °C 29.8 °F /  -1.2 °C 30.5in /  1033.2hPa Calm     97% 0in /  0.0mm 54 W/m2
10:56 30.6 °F /  -0.8 °C 29.5 °F /  -1.4 °C 30.5in /  1033.2hPa Calm   1mph /  1.6km/h 96% 0in /  0.0mm 51 W/m2
11:01 30.7 °F /  -0.7 °C 29.7 °F /  -1.3 °C 30.5in /  1033.2hPa Calm     96% 0in /  0.0mm 49 W/m2
11:06 30.7 °F /  -0.7 °C 29.7 °F /  -1.3 °C 30.5in /  1033.2hPa ENE 0.9mph /  1.4km/h 1mph /  1.6km/h 96% 0in /  0.0mm 56 W/m2
11:11 30.7 °F /  -0.7 °C 29.7 °F /  -1.3 °C 30.5in /  1033.5hPa Calm     96% 0in /  0.0mm 56 W/m2
11:16 30.7 °F /  -0.7 °C 29.7 °F /  -1.3 °C 30.5in /  1033.5hPa Calm     96% 0in /  0.0mm 62 W/m2
11:21 30.9 °F /  -0.6 °C 30.2 °F /  -1 °C 30.5in /  1033.5hPa ENE 0.9mph /  1.4km/h 2mph /  3.2km/h 97% 0in /  0.0mm 70 W/m2
11:26 30.9 °F /  -0.6 °C 30.2 °F /  -1 °C 30.5in /  1033.5hPa East 0.9mph /  1.4km/h 3mph /  4.8km/h 97% 0in /  0.0mm 79 W/m2
11:31 30.9 °F /  -0.6 °C 30.2 °F /  -1 °C 30.5in /  1033.5hPa ESE 2mph /  3.2km/h 4mph /  6.4km/h 97% 0in /  0.0mm 81 W/m2
11:36 30.9 °F /  -0.6 °C 30.2 °F /  -1 °C 30.5in /  1033.5hPa ESE 0.9mph /  1.4km/h 2mph /  3.2km/h 97% 0in /  0.0mm 79 W/m2
11:41 30.9 °F /  -0.6 °C 30.2 °F /  -1 °C 30.5in /  1033.5hPa ESE 0.9mph /  1.4km/h 4mph /  6.4km/h 97% 0in /  0.0mm 76 W/m2
11:46 30.9 °F /  -0.6 °C 30.2 °F /  -1 °C 30.5in /  1033.5hPa Calm   2mph /  3.2km/h 97% 0in /  0.0mm 77 W/m2
11:51 30.9 °F /  -0.6 °C 30.2 °F /  -1 °C 30.5in /  1033.5hPa Calm     97% 0in /  0.0mm 76 W/m2
11:56 31.1 °F /  -0.5 °C 30.4 °F /  -0.9 °C 30.5in /  1033.2hPa ESE 0.9mph /  1.4km/h 2mph /  3.2km/h 97% 0in /  0.0mm 77 W/m2
12:01 31.3 °F /  -0.4 °C 30.6 °F /  -0.8 °C 30.5in /  1033.2hPa ESE 2mph /  3.2km/h 2mph /  3.2km/h 97% 0in /  0.0mm 76 W/m2
12:06 31.3 °F /  -0.4 °C 30.6 °F /  -0.8 °C 30.5in /  1033.2hPa ESE 2mph /  3.2km/h 3mph /  4.8km/h 97% 0in /  0.0mm 72 W/m2
12:11 31.3 °F /  -0.4 °C 30.6 °F /  -0.8 °C 30.5in /  1033.2hPa Calm     97% 0in /  0.0mm 74 W/m2
12:17 31.3 °F /  -0.4 °C 30.6 °F /  -0.8 °C 30.5in /  1033.2hPa Calm     97% 0in /  0.0mm 70 W/m2
12:22 31.5 °F /  -0.3 °C 30.7 °F /  -0.7 °C 30.5in /  1033.2hPa East 2mph /  3.2km/h 2mph /  3.2km/h 97% 0in /  0.0mm 74 W/m2
12:27 31.5 °F /  -0.3 °C 30.7 °F /  -0.7 °C 30.5in /  1033.2hPa Calm     97% 0in /  0.0mm 74 W/m2
12:32 31.5 °F /  -0.3 °C 30.7 °F /  -0.7 °C 30.5in /  1032.8hPa Calm   3mph /  4.8km/h 97% 0in /  0.0mm 69 W/m2
12:37 31.6 °F /  -0.2 °C 30.9 °F /  -0.6 °C 30.5in /  1033.2hPa East 0.9mph /  1.4km/h 3mph /  4.8km/h 97% 0in /  0.0mm 69 W/m2
12:42 31.5 °F /  -0.3 °C 30.7 °F /  -0.7 °C 30.5in /  1032.8hPa Calm   1mph /  1.6km/h 97% 0in /  0.0mm 70 W/m2
12:47 31.5 °F /  -0.3 °C 30.7 °F /  -0.7 °C 30.5in /  1032.8hPa ENE 0.9mph /  1.4km/h 1mph /  1.6km/h 97% 0in /  0.0mm 69 W/m2
12:52 31.6 °F /  -0.2 °C 30.9 °F /  -0.6 °C 30.5in /  1032.8hPa ESE 0.9mph /  1.4km/h 2mph /  3.2km/h 97% 0in /  0.0mm 70 W/m2
12:57 31.6 °F /  -0.2 °C 30.9 °F /  -0.6 °C 30.5in /  1032.8hPa ESE 0.9mph /  1.4km/h 2mph /  3.2km/h 97% 0in /  0.0mm 69 W/m2
13:02 31.6 °F /  -0.2 °C 30.9 °F /  -0.6 °C 30.5in /  1032.8hPa Calm     97% 0in /  0.0mm 70 W/m2
13:07 31.6 °F /  -0.2 °C 30.9 °F /  -0.6 °C 30.5in /  1032.8hPa Calm     97% 0in /  0.0mm 69 W/m2
13:12 31.6 °F /  -0.2 °C 30.9 °F /  -0.6 °C 30.5in /  1032.8hPa Calm   1mph /  1.6km/h 97% 0in /  0.0mm 69 W/m2
13:17 31.6 °F /  -0.2 °C 30.9 °F /  -0.6 °C 30.5in /  1032.8hPa Calm     97% 0in /  0.0mm 69 W/m2
13:22 31.8 °F /  -0.1 °C 31.1 °F /  -0.5 °C 30.5in /  1032.8hPa ESE 2mph /  3.2km/h 2mph /  3.2km/h 97% 0in /  0.0mm 69 W/m2
13:27 31.8 °F /  -0.1 °C 31.1 °F /  -0.5 °C 30.5in /  1032.8hPa ESE 2mph /  3.2km/h 3mph /  4.8km/h 97% 0in /  0.0mm 74 W/m2
13:32 31.8 °F /  -0.1 °C 31.1 °F /  -0.5 °C 30.5in /  1032.8hPa Calm   1mph /  1.6km/h 97% 0in /  0.0mm 69 W/m2
13:37 31.8 °F /  -0.1 °C 31.1 °F /  -0.5 °C 30.5in /  1032.8hPa Calm   1mph /  1.6km/h 97% 0in /  0.0mm 65 W/m2
13:42 31.8 °F /  -0.1 °C 31.1 °F /  -0.5 °C 30.5in /  1032.8hPa ESE 0.9mph /  1.4km/h 2mph /  3.2km/h 97% 0in /  0.0mm 63 W/m2
13:47 31.8 °F /  -0.1 °C 31.1 °F /  -0.5 °C 30.5in /  1032.8hPa Calm     97% 0in /  0.0mm 54 W/m2
13:52 32 °F /  0 °C 31.3 °F /  -0.4 °C 30.5in /  1032.8hPa Calm   2mph /  3.2km/h 97% 0in /  0.0mm 51 W/m2
13:57 32 °F /  0 °C 31.3 °F /  -0.4 °C 30.5in /  1032.8hPa ENE 3mph /  4.8km/h 3mph /  4.8km/h 97% 0in /  0.0mm 53 W/m2
14:02 32 °F /  0 °C 31.3 °F /  -0.4 °C 30.5in /  1032.8hPa Calm   1mph /  1.6km/h 97% 0in /  0.0mm 49 W/m2
14:07 32 °F /  0 °C 31.3 °F /  -0.4 °C 30.5in /  1032.5hPa Calm   1mph /  1.6km/h 97% 0in /  0.0mm 51 W/m2
14:12 32 °F /  0 °C 31.3 °F /  -0.4 °C 30.5in /  1032.5hPa Calm   3mph /  4.8km/h 97% 0in /  0.0mm 49 W/m2
14:17 31.8 °F /  -0.1 °C 31.1 °F /  -0.5 °C 30.5in /  1032.5hPa ENE 0.9mph /  1.4km/h 2mph /  3.2km/h 97% 0in /  0.0mm 49 W/m2
14:22 31.8 °F /  -0.1 °C 31.1 °F /  -0.5 °C 30.5in /  1032.5hPa ENE 2mph /  3.2km/h 3mph /  4.8km/h 97% 0in /  0.0mm 46 W/m2
14:27 32 °F /  0 °C 31.3 °F /  -0.4 °C 30.5in /  1032.5hPa Calm   2mph /  3.2km/h 97% 0in /  0.0mm 49 W/m2
14:32 32 °F /  0 °C 31.3 °F /  -0.4 °C 30.5in /  1032.5hPa Calm   1mph /  1.6km/h 97% 0in /  0.0mm 51 W/m2
14:37 32.2 °F /  0.1 °C 31.5 °F /  -0.3 °C 30.5in /  1032.5hPa ENE 0.9mph /  1.4km/h 2mph /  3.2km/h 97% 0in /  0.0mm 53 W/m2
14:42 32.2 °F /  0.1 °C 31.5 °F /  -0.3 °C 30.5in /  1032.2hPa Calm     97% 0in /  0.0mm 53 W/m2
14:47 32.2 °F /  0.1 °C 31.5 °F /  -0.3 °C 30.5in /  1032.2hPa Calm   2mph /  3.2km/h 97% 0in /  0.0mm 51 W/m2
14:52 32.2 °F /  0.1 °C 31.5 °F /  -0.3 °C 30.5in /  1032.2hPa Calm   1mph /  1.6km/h 97% 0in /  0.0mm 49 W/m2
14:57 32.2 °F /  0.1 °C 31.5 °F /  -0.3 °C 30.5in /  1032.5hPa ENE 2mph /  3.2km/h 2mph /  3.2km/h 97% 0in /  0.0mm 46 W/m2
15:02 32.2 °F /  0.1 °C 31.5 °F /  -0.3 °C 30.5in /  1032.5hPa Calm     97% 0in /  0.0mm 49 W/m2
15:07 32.2 °F /  0.1 °C 31.5 °F /  -0.3 °C 30.5in /  1032.5hPa Calm     97% 0in /  0.0mm 42 W/m2
15:12 32.2 °F /  0.1 °C 31.5 °F /  -0.3 °C 30.5in /  1032.2hPa Calm     97% 0in /  0.0mm 37 W/m2
15:17 32.2 °F /  0.1 °C 31.5 °F /  -0.3 °C 30.5in /  1032.5hPa Calm   1mph /  1.6km/h 97% 0in /  0.0mm 39 W/m2
15:22 32.4 °F /  0.2 °C 31.6 °F /  -0.2 °C 30.5in /  1032.5hPa Calm     97% 0in /  0.0mm 37 W/m2
15:27 32.4 °F /  0.2 °C 31.6 °F /  -0.2 °C 30.5in /  1032.5hPa SE 0.9mph /  1.4km/h 2mph /  3.2km/h 97% 0in /  0.0mm 33 W/m2
15:32 32.4 °F /  0.2 °C 31.6 °F /  -0.2 °C 30.5in /  1032.5hPa Calm     97% 0in /  0.0mm 30 W/m2
15:37 32.4 °F /  0.2 °C 31.6 °F /  -0.2 °C 30.5in /  1032.2hPa SE 2mph /  3.2km/h 2mph /  3.2km/h 97% 0in /  0.0mm 26 W/m2
15:42 32.4 °F /  0.2 °C 31.6 °F /  -0.2 °C 30.5in /  1032.5hPa Calm   1mph /  1.6km/h 97% 0in /  0.0mm 23 W/m2
15:47 32.4 °F /  0.2 °C 31.6 °F /  -0.2 °C 30.5in /  1032.5hPa East 0.9mph /  1.4km/h 2mph /  3.2km/h 97% 0in /  0.0mm 25 W/m2
15:52 32.4 °F /  0.2 °C 31.6 °F /  -0.2 °C 30.5in /  1032.5hPa ENE 0.9mph /  1.4km/h 3mph /  4.8km/h 97% 0in /  0.0mm 23 W/m2
15:57 32.2 °F /  0.1 °C 31.5 °F /  -0.3 °C 30.5in /  1032.5hPa ENE 0.9mph /  1.4km/h 2mph /  3.2km/h 97% 0in /  0.0mm 21 W/m2
16:02 32.2 °F /  0.1 °C 31.5 °F /  -0.3 °C 30.5in /  1032.5hPa Calm     97% 0in /  0.0mm 21 W/m2
16:07 32.2 °F /  0.1 °C 31.5 °F /  -0.3 °C 30.5in /  1032.5hPa NE 0.9mph /  1.4km/h 1mph /  1.6km/h 97% 0in /  0.0mm 18 W/m2
16:12 32.2 °F /  0.1 °C 31.5 °F /  -0.3 °C 30.5in /  1032.5hPa Calm     97% 0in /  0.0mm 16 W/m2
16:17 32.2 °F /  0.1 °C 31.5 °F /  -0.3 °C 30.5in /  1032.5hPa Calm     97% 0in /  0.0mm 16 W/m2
16:22 32.2 °F /  0.1 °C 31.5 °F /  -0.3 °C 30.5in /  1032.5hPa NE 2.9mph /  4.7km/h 3mph /  4.8km/h 97% 0in /  0.0mm 14 W/m2
16:27 32 °F /  0 °C 31.3 °F /  -0.4 °C 30.5in /  1032.5hPa NE 0.9mph /  1.4km/h 2mph /  3.2km/h 97% 0in /  0.0mm 12 W/m2
16:32 31.8 °F /  -0.1 °C 31.1 °F /  -0.5 °C 30.5in /  1032.5hPa ENE 0.9mph /  1.4km/h 3mph /  4.8km/h 97% 0in /  0.0mm 11 W/m2
16:37 31.8 °F /  -0.1 °C 31.1 °F /  -0.5 °C 30.5in /  1032.8hPa ENE 2mph /  3.2km/h 3mph /  4.8km/h 97% 0in /  0.0mm 9 W/m2
16:42 31.6 °F /  -0.2 °C 30.9 °F /  -0.6 °C 30.5in /  1032.5hPa ENE 2mph /  3.2km/h 3mph /  4.8km/h 97% 0in /  0.0mm 7 W/m2
16:48 31.6 °F /  -0.2 °C 30.9 °F /  -0.6 °C 30.5in /  1032.5hPa East 2mph /  3.2km/h 4mph /  6.4km/h 97% 0in /  0.0mm 7 W/m2
16:53 31.6 °F /  -0.2 °C 30.9 °F /  -0.6 °C 30.5in /  1032.5hPa ESE 2mph /  3.2km/h 3mph /  4.8km/h 97% 0in /  0.0mm 5 W/m2
16:58 31.6 °F /  -0.2 °C 30.9 °F /  -0.6 °C 30.5in /  1032.5hPa East 0.9mph /  1.4km/h 4mph /  6.4km/h 97% 0in /  0.0mm 5 W/m2
17:03 31.5 °F /  -0.3 °C 30.7 °F /  -0.7 °C 30.5in /  1032.5hPa Calm   2mph /  3.2km/h 97% 0in /  0.0mm 0 W/m2
17:08 31.5 °F /  -0.3 °C 30.7 °F /  -0.7 °C 30.5in /  1032.5hPa Calm   2mph /  3.2km/h 97% 0in /  0.0mm 0 W/m2
17:13 31.5 °F /  -0.3 °C 30.7 °F /  -0.7 °C 30.5in /  1032.2hPa ESE 0.9mph /  1.4km/h 2mph /  3.2km/h 97% 0in /  0.0mm 0 W/m2
17:18 31.3 °F /  -0.4 °C 30.6 °F /  -0.8 °C 30.5in /  1032.5hPa Calm     97% 0in /  0.0mm 0 W/m2
17:23 31.3 °F /  -0.4 °C 30.6 °F /  -0.8 °C 30.5in /  1032.5hPa Calm     97% 0in /  0.0mm 0 W/m2
17:28 31.3 °F /  -0.4 °C 30.6 °F /  -0.8 °C 30.5in /  1032.5hPa Calm     97% 0in /  0.0mm 0 W/m2
17:33 31.3 °F /  -0.4 °C 30.6 °F /  -0.8 °C 30.5in /  1032.5hPa ESE 0.9mph /  1.4km/h 2mph /  3.2km/h 97% 0in /  0.0mm 0 W/m2
17:38 31.3 °F /  -0.4 °C 30.6 °F /  -0.8 °C 30.5in /  1032.5hPa Calm   3mph /  4.8km/h 97% 0in /  0.0mm 0 W/m2
17:43 31.3 °F /  -0.4 °C 30.6 °F /  -0.8 °C 30.5in /  1032.5hPa Calm     97% 0in /  0.0mm 0 W/m2
17:48 31.3 °F /  -0.4 °C 30.6 °F /  -0.8 °C 30.5in /  1032.5hPa ENE 0.9mph /  1.4km/h 3mph /  4.8km/h 97% 0in /  0.0mm 0 W/m2
17:53 31.1 °F /  -0.5 °C 30.4 °F /  -0.9 °C 30.5in /  1032.5hPa Calm   1mph /  1.6km/h 97% 0in /  0.0mm 0 W/m2
17:58 31.3 °F /  -0.4 °C 30.6 °F /  -0.8 °C 30.5in /  1032.5hPa Calm     97% 0in /  0.0mm 0 W/m2
18:03 31.3 °F /  -0.4 °C 30.6 °F /  -0.8 °C 30.5in /  1032.8hPa ENE 2mph /  3.2km/h 2mph /  3.2km/h 97% 0in /  0.0mm 0 W/m2
18:08 31.3 °F /  -0.4 °C 30.6 °F /  -0.8 °C 30.5in /  1032.8hPa Calm     97% 0in /  0.0mm 0 W/m2
18:13 31.3 °F /  -0.4 °C 30.6 °F /  -0.8 °C 30.5in /  1032.5hPa East 2.9mph /  4.7km/h 3mph /  4.8km/h 97% 0in /  0.0mm 0 W/m2
18:18 31.3 °F /  -0.4 °C 30.6 °F /  -0.8 °C 30.5in /  1032.8hPa East 0.9mph /  1.4km/h 2mph /  3.2km/h 97% 0in /  0.0mm 0 W/m2
18:23 31.3 °F /  -0.4 °C 30.6 °F /  -0.8 °C 30.5in /  1032.8hPa ENE 0.9mph /  1.4km/h 2mph /  3.2km/h 97% 0in /  0.0mm 0 W/m2
18:28 31.3 °F /  -0.4 °C 30.6 °F /  -0.8 °C 30.5in /  1032.8hPa Calm     97% 0in /  0.0mm 0 W/m2
18:33 31.3 °F /  -0.4 °C 30.6 °F /  -0.8 °C 30.5in /  1032.8hPa Calm   1mph /  1.6km/h 97% 0in /  0.0mm 0 W/m2
18:38 31.3 °F /  -0.4 °C 30.6 °F /  -0.8 °C 30.5in /  1032.8hPa East 0.9mph /  1.4km/h 2mph /  3.2km/h 97% 0in /  0.0mm 0 W/m2
18:43 31.3 °F /  -0.4 °C 30.6 °F /  -0.8 °C 30.5in /  1032.8hPa Calm   3mph /  4.8km/h 97% 0in /  0.0mm 0 W/m2
18:48 31.3 °F /  -0.4 °C 30.6 °F /  -0.8 °C 30.5in /  1032.8hPa East 0.9mph /  1.4km/h 2mph /  3.2km/h 97% 0in /  0.0mm 0 W/m2
18:53 31.3 °F /  -0.4 °C 30.6 °F /  -0.8 °C 30.5in /  1032.8hPa East 0.9mph /  1.4km/h 4mph /  6.4km/h 97% 0in /  0.0mm 0 W/m2
18:58 31.3 °F /  -0.4 °C 30.6 °F /  -0.8 °C 30.5in /  1032.8hPa SE 0.9mph /  1.4km/h 3mph /  4.8km/h 97% 0in /  0.0mm 0 W/m2
19:03 31.1 °F /  -0.5 °C 30.4 °F /  -0.9 °C 30.5in /  1032.8hPa Calm   2mph /  3.2km/h 97% 0in /  0.0mm 0 W/m2
19:08 30.9 °F /  -0.6 °C 30.2 °F /  -1 °C 30.5in /  1032.8hPa East 0.9mph /  1.4km/h 2mph /  3.2km/h 97% 0in /  0.0mm 0 W/m2
19:13 30.9 °F /  -0.6 °C 30.2 °F /  -1 °C 30.5in /  1032.8hPa Calm   3mph /  4.8km/h 97% 0in /  0.0mm 0 W/m2
19:18 30.9 °F /  -0.6 °C 30.2 °F /  -1 °C 30.5in /  1032.8hPa SE 0.9mph /  1.4km/h 1mph /  1.6km/h 97% 0in /  0.0mm 0 W/m2
19:23 30.9 °F /  -0.6 °C 30.2 °F /  -1 °C 30.5in /  1032.8hPa Calm   3mph /  4.8km/h 97% 0in /  0.0mm 0 W/m2
19:28 30.9 °F /  -0.6 °C 30.2 °F /  -1 °C 30.5in /  1032.8hPa Calm     97% 0in /  0.0mm 0 W/m2
19:33 30.9 °F /  -0.6 °C 30.2 °F /  -1 °C 30.5in /  1032.8hPa Calm     97% 0in /  0.0mm 0 W/m2
19:38 30.9 °F /  -0.6 °C 30.2 °F /  -1 °C 30.5in /  1032.8hPa Calm   1mph /  1.6km/h 97% 0in /  0.0mm 0 W/m2
19:43 30.9 °F /  -0.6 °C 30.2 °F /  -1 °C 30.5in /  1032.8hPa SW 0.9mph /  1.4km/h 1mph /  1.6km/h 97% 0in /  0.0mm 0 W/m2
19:48 30.9 °F /  -0.6 °C 30.2 °F /  -1 °C 30.5in /  1032.8hPa Calm     97% 0in /  0.0mm 0 W/m2
19:53 30.9 °F /  -0.6 °C 30.2 °F /  -1 °C 30.5in /  1032.8hPa Calm     97% 0in /  0.0mm 0 W/m2
19:58 30.9 °F /  -0.6 °C 30.2 °F /  -1 °C 30.5in /  1032.8hPa Calm   1mph /  1.6km/h 97% 0in /  0.0mm 0 W/m2
20:03 30.9 °F /  -0.6 °C 30.2 °F /  -1 °C 30.5in /  1032.8hPa Calm   2mph /  3.2km/h 97% 0in /  0.0mm 0 W/m2
20:08 30.9 °F /  -0.6 °C 30.2 °F /  -1 °C 30.5in /  1032.8hPa ENE 0.9mph /  1.4km/h 1mph /  1.6km/h 97% 0in /  0.0mm 0 W/m2
20:13 30.9 °F /  -0.6 °C 30.2 °F /  -1 °C 30.5in /  1032.8hPa SE 2mph /  3.2km/h 2mph /  3.2km/h 97% 0in /  0.0mm 0 W/m2
20:18 30.9 °F /  -0.6 °C 30.2 °F /  -1 °C 30.5in /  1032.8hPa Calm   2mph /  3.2km/h 97% 0in /  0.0mm 0 W/m2
20:23 30.9 °F /  -0.6 °C 30.2 °F /  -1 °C 30.5in /  1032.8hPa Calm     97% 0in /  0.0mm 0 W/m2
20:28 30.9 °F /  -0.6 °C 30.2 °F /  -1 °C 30.5in /  1032.8hPa SW 2mph /  3.2km/h 2mph /  3.2km/h 97% 0in /  0.0mm 0 W/m2
20:33 30.7 °F /  -0.7 °C 30 °F /  -1.1 °C 30.5in /  1032.8hPa WSW 0.9mph /  1.4km/h 2mph /  3.2km/h 97% 0in /  0.0mm 0 W/m2
20:38 30.7 °F /  -0.7 °C 30 °F /  -1.1 °C 30.5in /  1032.8hPa West 0.9mph /  1.4km/h 1mph /  1.6km/h 97% 0in /  0.0mm 0 W/m2
20:43 30.7 °F /  -0.7 °C 30 °F /  -1.1 °C 30.5in /  1032.8hPa Calm   1mph /  1.6km/h 97% 0in /  0.0mm 0 W/m2
20:48 30.7 °F /  -0.7 °C 30 °F /  -1.1 °C 30.5in /  1032.8hPa Calm     97% 0in /  0.0mm 0 W/m2
20:53 30.7 °F /  -0.7 °C 30 °F /  -1.1 °C 30.5in /  1032.8hPa Calm     97% 0in /  0.0mm 0 W/m2
20:58 30.7 °F /  -0.7 °C 30 °F /  -1.1 °C 30.5in /  1032.8hPa WNW 2.9mph /  4.7km/h 3mph /  4.8km/h 97% 0in /  0.0mm 0 W/m2
21:03 30.7 °F /  -0.7 °C 30 °F /  -1.1 °C 30.5in /  1032.8hPa West 0.9mph /  1.4km/h 2mph /  3.2km/h 97% 0in /  0.0mm 0 W/m2
21:08 30.7 °F /  -0.7 °C 30 °F /  -1.1 °C 30.5in /  1032.8hPa Calm   1mph /  1.6km/h 97% 0in /  0.0mm 0 W/m2
21:13 30.7 °F /  -0.7 °C 30 °F /  -1.1 °C 30.5in /  1032.8hPa Calm   2mph /  3.2km/h 97% 0in /  0.0mm 0 W/m2
21:18 30.7 °F /  -0.7 °C 30 °F /  -1.1 °C 30.5in /  1032.8hPa WNW 2mph /  3.2km/h 2mph /  3.2km/h 97% 0in /  0.0mm 0 W/m2
21:23 30.7 °F /  -0.7 °C 30 °F /  -1.1 °C 30.5in /  1032.8hPa West 2mph /  3.2km/h 2mph /  3.2km/h 97% 0in /  0.0mm 0 W/m2
21:28 30.6 °F /  -0.8 °C 29.8 °F /  -1.2 °C 30.5in /  1032.8hPa WNW 2.9mph /  4.7km/h 3mph /  4.8km/h 97% 0in /  0.0mm 0 W/m2
21:33 30.6 °F /  -0.8 °C 29.8 °F /  -1.2 °C 30.5in /  1032.8hPa West 0.9mph /  1.4km/h 3mph /  4.8km/h 97% 0in /  0.0mm 0 W/m2
21:38 30.6 °F /  -0.8 °C 29.8 °F /  -1.2 °C 30.5in /  1032.8hPa WNW 2mph /  3.2km/h 4mph /  6.4km/h 97% 0in /  0.0mm 0 W/m2
21:43 30.6 °F /  -0.8 °C 29.8 °F /  -1.2 °C 30.5in /  1032.8hPa WNW 0.9mph /  1.4km/h 2mph /  3.2km/h 97% 0in /  0.0mm 0 W/m2
21:48 30.6 °F /  -0.8 °C 29.8 °F /  -1.2 °C 30.5in /  1032.8hPa West 4mph /  6.4km/h 4mph /  6.4km/h 97% 0in /  0.0mm 0 W/m2
21:53 30.6 °F /  -0.8 °C 29.8 °F /  -1.2 °C 30.5in /  1032.8hPa Calm   2mph /  3.2km/h 97% 0in /  0.0mm 0 W/m2
21:58 30.6 °F /  -0.8 °C 29.8 °F /  -1.2 °C 30.5in /  1032.8hPa WNW 0.9mph /  1.4km/h 2mph /  3.2km/h 97% 0in /  0.0mm 0 W/m2
22:03 30.6 °F /  -0.8 °C 29.8 °F /  -1.2 °C 30.5in /  1032.8hPa NW 0.9mph /  1.4km/h 2mph /  3.2km/h 97% 0in /  0.0mm 0 W/m2
22:08 30.7 °F /  -0.7 °C 30 °F /  -1.1 °C 30.5in /  1032.8hPa WNW 0.9mph /  1.4km/h 5mph /  8km/h 97% 0in /  0.0mm 0 W/m2
22:13 30.6 °F /  -0.8 °C 29.8 °F /  -1.2 °C 30.5in /  1032.8hPa NW 2mph /  3.2km/h 3mph /  4.8km/h 97% 0in /  0.0mm 0 W/m2
22:18 30.6 °F /  -0.8 °C 29.8 °F /  -1.2 °C 30.5in /  1032.8hPa WNW 2mph /  3.2km/h 4mph /  6.4km/h 97% 0in /  0.0mm 0 W/m2
22:23 30.6 °F /  -0.8 °C 29.8 °F /  -1.2 °C 30.5in /  1032.8hPa West 0.9mph /  1.4km/h 3mph /  4.8km/h 97% 0in /  0.0mm 0 W/m2
22:28 30.6 °F /  -0.8 °C 29.8 °F /  -1.2 °C 30.5in /  1032.8hPa West 0.9mph /  1.4km/h 2mph /  3.2km/h 97% 0in /  0.0mm 0 W/m2
22:33 30.6 °F /  -0.8 °C 29.8 °F /  -1.2 °C 30.5in /  1032.8hPa Calm   2mph /  3.2km/h 97% 0in /  0.0mm 0 W/m2
22:38 30.6 °F /  -0.8 °C 29.8 °F /  -1.2 °C 30.5in /  1033.2hPa West 2mph /  3.2km/h 3mph /  4.8km/h 97% 0in /  0.0mm 0 W/m2
22:43 30.4 °F /  -0.9 °C 29.7 °F /  -1.3 °C 30.5in /  1033.2hPa WSW 2.9mph /  4.7km/h 4mph /  6.4km/h 97% 0in /  0.0mm 0 W/m2
22:48 30.4 °F /  -0.9 °C 29.7 °F /  -1.3 °C 30.5in /  1032.8hPa WNW 0.9mph /  1.4km/h 3mph /  4.8km/h 97% 0in /  0.0mm 0 W/m2
22:53 30.4 °F /  -0.9 °C 29.7 °F /  -1.3 °C 30.5in /  1032.8hPa Calm   2mph /  3.2km/h 97% 0in /  0.0mm 0 W/m2
22:58 30.4 °F /  -0.9 °C 29.7 °F /  -1.3 °C 30.5in /  1032.8hPa West 0.9mph /  1.4km/h 3mph /  4.8km/h 97% 0in /  0.0mm 0 W/m2
23:03 30.4 °F /  -0.9 °C 29.7 °F /  -1.3 °C 30.5in /  1032.8hPa West 2.9mph /  4.7km/h 3mph /  4.8km/h 97% 0in /  0.0mm 0 W/m2
23:08 30.4 °F /  -0.9 °C 29.7 °F /  -1.3 °C 30.5in /  1032.8hPa West 2mph /  3.2km/h 3mph /  4.8km/h 97% 0in /  0.0mm 0 W/m2
23:13 30.4 °F /  -0.9 °C 29.7 °F /  -1.3 °C 30.5in /  1032.8hPa West 0.9mph /  1.4km/h 3mph /  4.8km/h 97% 0in /  0.0mm 0 W/m2
23:18 30.4 °F /  -0.9 °C 29.7 °F /  -1.3 °C 30.5in /  1032.8hPa West 2.9mph /  4.7km/h 4mph /  6.4km/h 97% 0in /  0.0mm 0 W/m2
23:23 30.4 °F /  -0.9 °C 29.7 °F /  -1.3 °C 30.5in /  1032.8hPa West 2mph /  3.2km/h 4mph /  6.4km/h 97% 0in /  0.0mm 0 W/m2
23:28 30.4 °F /  -0.9 °C 29.7 °F /  -1.3 °C 30.5in /  1032.8hPa WSW 2.9mph /  4.7km/h 4mph /  6.4km/h 97% 0in /  0.0mm 0 W/m2
23:33 30.2 °F /  -1 °C 29.5 °F /  -1.4 °C 30.5in /  1032.8hPa West 2mph /  3.2km/h 4mph /  6.4km/h 97% 0in /  0.0mm 0 W/m2
23:38 30 °F /  -1.1 °C 29.3 °F /  -1.5 °C 30.5in /  1032.8hPa West 0.9mph /  1.4km/h 2mph /  3.2km/h 97% 0in /  0.0mm 0 W/m2
23:43 30 °F /  -1.1 °C 29.3 °F /  -1.5 °C 30.5in /  1032.8hPa West 2mph /  3.2km/h 3mph /  4.8km/h 97% 0in /  0.0mm 0 W/m2
23:48 30 °F /  -1.1 °C 29.3 °F /  -1.5 °C 30.5in /  1032.8hPa WNW 0.9mph /  1.4km/h 3mph /  4.8km/h 97% 0in /  0.0mm 0 W/m2
23:53 30 °F /  -1.1 °C 29.3 °F /  -1.5 °C 30.5in /  1032.8hPa West 2mph /  3.2km/h 3mph /  4.8km/h 97% 0in /  0.0mm 0 W/m2
23:58 30 °F /  -1.1 °C 29.3 °F /  -1.5 °C 30.5in /  1032.8hPa West 2mph /  3.2km/h 3mph /  4.8km/h 97% 0in /  0.0mm 0 W/m2
Juneau County Weather
Compliments of Weather Underground - 4 mb